Terminal Aerodrome Forecast
Issued by NWS Boston, MA

Home | Current Version | Previous Version | Text Only | Print | Product List | Glossary On
Versions: 1 2 3 4 5 6 7 8 9 10 11 12 13 14 15 16 17 18 19 20 21 22 23 24 25 26 27
000
FTUS41 KBOX 252326
TAFPVD
TAF
KPVD 252326Z 2600/2624 21009KT P6SM -SHRA SCT050 BKN090 OVC250
     FM260200 22007KT P6SM VCSH SCT050 BKN120
     FM260300 23004KT 5SM BR BKN250
     FM261000 28005KT P6SM FEW250
     FM261700 29009KT P6SM SKC=

USA.gov is the U.S. government's official web portal to all federal, state and local government web resources and services.